sim
Sign-in with your pilot id or email,
or register
Callsign
Passwort

Schedule Details

Flight Number: EWG236
Departure: Munich Airport (EDDM) at 10:05
Arrival: Bridgetown Grantley Adams International Airport (TBPB) at 20:40
Route: Eurowings Passenger Schedule. Enter filed route here before submitting Pirep.

Weather Information
Getting current METAR information for EDDM 191120Z 08004KT 030V120 CAVOK 19/11 Q1019 NOSIG
Getting current METAR information for TBPB 191100Z 16007KT 9999 FEW012CB SCT016 29/25 Q1011 NOSIG

Schedule Frequency

Route Map